Time;durP1;ratioP1;P1;durP2;ratioP2;P2;SDS_P1;SDS_P2;PMS_P1;PMS_P2;Temp;Humidity;BMP_temperature;BMP_pressure;BME280_temperature;BME280_humidity;BME280_pressure;Samples;Min_cycle;Max_cycle;Signal;HPM_P1;HPM_P2
2023/12/09 00:01:51;;;;;;;;;7.67;3.00;;;;;;;;5058718;28;45331;-71
2023/12/09 00:04:17;;;;;;;;;10.00;4.00;;;;;;;;5058230;28;45437;-69
2023/12/09 00:06:46;;;;;;;;;5.00;3.33;;;;;;;;5059056;28;45189;-71
2023/12/09 00:09:12;;;;;;;;;12.00;4.67;;;;;;;;5058532;28;45575;-70
2023/12/09 00:11:38;;;;;;;;;8.33;2.00;;;;;;;;5058598;28;46693;-70
2023/12/09 00:14:03;;;;;;;;;5.00;4.33;;;;;;;;5057745;28;45321;-70
2023/12/09 00:16:29;;;;;;;;;6.67;4.33;;;;;;;;5056702;28;45430;-70
2023/12/09 00:18:54;;;;;;;;;5.67;4.00;;;;;;;;5058234;28;45577;-71
2023/12/09 00:21:19;;;;;;;;;9.67;5.33;;;;;;;;5058310;28;46579;-71
2023/12/09 00:23:44;;;;;;;;;11.00;3.33;;;;;;;;5058021;28;45565;-70
2023/12/09 00:26:10;;;;;;;;;7.33;4.00;;;;;;;;5058263;28;45297;-71
2023/12/09 00:28:35;;;;;;;;;5.00;1.33;;;;;;;;5057884;28;45459;-69
2023/12/09 00:31:00;;;;;;;;;2.67;2.67;;;;;;;;5058125;28;46298;-71
2023/12/09 00:33:25;;;;;;;;;5.67;4.00;;;;;;;;5058503;28;45371;-70
2023/12/09 00:35:50;;;;;;;;;8.67;3.33;;;;;;;;5058470;28;45376;-69
2023/12/09 00:38:16;;;;;;;;;3.00;3.00;;;;;;;;5058257;28;45420;-71
2023/12/09 00:40:41;;;;;;;;;14.33;5.33;;;;;;;;5039408;28;46861;-70
2023/12/09 00:43:06;;;;;;;;;4.67;4.67;;;;;;;;5057990;28;45298;-70
2023/12/09 00:45:31;;;;;;;;;5.67;4.00;;;;;;;;5057866;28;45442;-70
2023/12/09 00:47:56;;;;;;;;;10.00;4.33;;;;;;;;5057089;28;45604;-71
2023/12/09 00:50:22;;;;;;;;;4.67;4.67;;;;;;;;5057414;28;45712;-69
2023/12/09 00:52:47;;;;;;;;;9.67;2.67;;;;;;;;5039492;28;45425;-70
2023/12/09 00:55:12;;;;;;;;;12.67;4.67;;;;;;;;5055780;28;45934;-69
2023/12/09 00:57:37;;;;;;;;;5.00;3.67;;;;;;;;5056650;28;45429;-71
2023/12/09 01:00:04;;;;;;;;;10.00;2.00;;;;;;;;5057621;28;45403;-70
2023/12/09 01:02:29;;;;;;;;;7.67;3.00;;;;;;;;5048952;28;45304;-70
2023/12/09 01:04:54;;;;;;;;;3.00;2.00;;;;;;;;5057489;28;45292;-71
2023/12/09 01:07:19;;;;;;;;;7.00;4.00;;;;;;;;5057830;28;45442;-70
2023/12/09 01:09:44;;;;;;;;;3.67;1.67;;;;;;;;5057648;28;45391;-71
2023/12/09 01:12:10;;;;;;;;;4.00;3.00;;;;;;;;5057571;28;45311;-70
2023/12/09 01:14:35;;;;;;;;;5.00;3.67;;;;;;;;5057414;28;45267;-70
2023/12/09 01:17:00;;;;;;;;;4.67;3.67;;;;;;;;5057117;28;45403;-70
2023/12/09 01:19:25;;;;;;;;;5.67;4.67;;;;;;;;5056937;28;45422;-71
2023/12/09 01:21:51;;;;;;;;;8.33;4.67;;;;;;;;5057216;28;45334;-71
2023/12/09 01:24:16;;;;;;;;;7.33;4.00;;;;;;;;5057631;28;45362;-69
2023/12/09 01:26:41;;;;;;;;;7.00;3.00;;;;;;;;5056706;28;46153;-70
2023/12/09 01:29:06;;;;;;;;;10.67;6.67;;;;;;;;5056799;28;46498;-70
2023/12/09 01:31:32;;;;;;;;;9.00;3.33;;;;;;;;5057118;28;45376;-70
2023/12/09 01:33:57;;;;;;;;;7.00;3.00;;;;;;;;5055605;28;45467;-71
2023/12/09 01:36:22;;;;;;;;;8.67;5.67;;;;;;;;5057754;28;45403;-69
2023/12/09 01:38:47;;;;;;;;;6.00;3.33;;;;;;;;5055856;28;46551;-70
2023/12/09 01:41:12;;;;;;;;;4.00;4.00;;;;;;;;5056563;28;45361;-70
2023/12/09 01:43:38;;;;;;;;;7.33;4.67;;;;;;;;5056993;28;45429;-70
2023/12/09 01:46:09;;;;;;;;;6.67;4.00;;;;;;;;5056880;28;45585;-70
2023/12/09 01:48:35;;;;;;;;;4.00;4.00;;;;;;;;5037779;28;47852;-70
2023/12/09 01:51:01;;;;;;;;;3.67;3.67;;;;;;;;5055854;28;45238;-70
2023/12/09 01:53:27;;;;;;;;;8.33;3.00;;;;;;;;5057036;28;45508;-70
2023/12/09 01:55:52;;;;;;;;;7.33;5.33;;;;;;;;5057422;28;45577;-69
2023/12/09 01:58:19;;;;;;;;;10.00;4.00;;;;;;;;5055768;28;46148;-71
2023/12/09 02:00:44;;;;;;;;;15.00;6.67;;;;;;;;5056944;28;45384;-70
2023/12/09 02:03:09;;;;;;;;;12.67;7.00;;;;;;;;5056452;28;45487;-70
2023/12/09 02:05:34;;;;;;;;;4.67;4.00;;;;;;;;5056528;28;45496;-71
2023/12/09 02:07:59;;;;;;;;;6.33;4.00;;;;;;;;5056505;28;46156;-71
2023/12/09 02:10:25;;;;;;;;;4.00;4.00;;;;;;;;5055403;28;45518;-71
2023/12/09 02:12:51;;;;;;;;;7.00;4.67;;;;;;;;5056912;28;45400;-70
2023/12/09 02:15:24;;;;;;;;;9.25;2.00;;;;;;;;5056379;28;45671;-72
2023/12/09 02:18:03;;;;;;;;;6.00;5.33;;;;;;;;5056164;28;46874;-71
2023/12/09 02:20:29;;;;;;;;;9.33;7.00;;;;;;;;5056252;28;45447;-70
2023/12/09 02:23:03;;;;;;;;;8.67;8.00;;;;;;;;5056541;28;45411;-71
2023/12/09 02:25:28;;;;;;;;;7.67;5.33;;;;;;;;5056257;28;45390;-70
2023/12/09 02:27:57;;;;;;;;;4.67;4.67;;;;;;;;5055648;28;45863;-70
2023/12/09 02:30:28;;;;;;;;;6.00;4.00;;;;;;;;5055892;28;45292;-71
2023/12/09 02:32:55;;;;;;;;;8.33;4.00;;;;;;;;5055889;28;45485;-70
2023/12/09 02:35:22;;;;;;;;;7.00;4.00;;;;;;;;5056541;28;45343;-71
2023/12/09 02:37:48;;;;;;;;;6.67;4.33;;;;;;;;5053006;28;46068;-71
2023/12/09 02:40:15;;;;;;;;;10.33;5.00;;;;;;;;5055781;28;45506;-71
2023/12/09 02:42:41;;;;;;;;;14.00;6.00;;;;;;;;5055789;28;45457;-71
2023/12/09 02:45:06;;;;;;;;;6.33;6.00;;;;;;;;5054657;28;45819;-71
2023/12/09 02:47:31;;;;;;;;;11.33;6.00;;;;;;;;5055252;28;46640;-71
2023/12/09 02:49:57;;;;;;;;;9.00;3.67;;;;;;;;5056293;28;45439;-70
2023/12/09 02:52:22;;;;;;;;;9.00;4.00;;;;;;;;5055633;28;45157;-70
2023/12/09 02:54:47;;;;;;;;;8.00;4.00;;;;;;;;5056365;28;45347;-70
2023/12/09 02:57:12;;;;;;;;;8.33;2.33;;;;;;;;5055792;28;46022;-70
2023/12/09 02:59:38;;;;;;;;;7.33;5.00;;;;;;;;5056520;28;45315;-70
2023/12/09 03:02:04;;;;;;;;;10.33;7.00;;;;;;;;5055403;28;45450;-71
2023/12/09 03:04:31;;;;;;;;;9.00;8.00;;;;;;;;5056840;28;45205;-70
2023/12/09 03:06:56;;;;;;;;;8.00;4.67;;;;;;;;5055194;28;46915;-71
2023/12/09 03:09:21;;;;;;;;;13.67;6.67;;;;;;;;5056194;28;45450;-70
2023/12/09 03:11:46;;;;;;;;;8.00;6.33;;;;;;;;5054929;28;45469;-71
2023/12/09 03:14:11;;;;;;;;;8.00;4.00;;;;;;;;5055710;28;45507;-70
2023/12/09 03:16:37;;;;;;;;;13.00;7.00;;;;;;;;5055639;28;46564;-71
2023/12/09 03:19:03;;;;;;;;;8.33;5.33;;;;;;;;5055854;28;45465;-70
2023/12/09 03:21:28;;;;;;;;;9.67;5.33;;;;;;;;5056260;28;45431;-70
2023/12/09 03:23:53;;;;;;;;;10.33;7.00;;;;;;;;5055755;28;45421;-71
2023/12/09 03:26:19;;;;;;;;;7.33;4.33;;;;;;;;5056020;28;46026;-71
2023/12/09 03:28:44;;;;;;;;;9.00;5.00;;;;;;;;5055057;28;45585;-71
2023/12/09 03:31:13;;;;;;;;;8.33;4.00;;;;;;;;5055093;28;45763;-71
2023/12/09 03:33:38;;;;;;;;;10.00;6.33;;;;;;;;5055290;28;45467;-71
2023/12/09 03:36:05;;;;;;;;;9.00;5.33;;;;;;;;5055535;28;46898;-71
2023/12/09 03:38:30;;;;;;;;;8.67;6.67;;;;;;;;5055850;28;45716;-70
2023/12/09 03:40:55;;;;;;;;;8.00;4.00;;;;;;;;5055006;28;45419;-71
2023/12/09 03:43:20;;;;;;;;;6.00;6.00;;;;;;;;5055998;28;45729;-70
2023/12/09 03:45:45;;;;;;;;;9.33;4.00;;;;;;;;5036815;28;46833;-69
2023/12/09 03:48:10;;;;;;;;;7.00;7.00;;;;;;;;5055111;28;45343;-71
2023/12/09 03:50:36;;;;;;;;;12.33;7.00;;;;;;;;5058011;28;45358;-71
2023/12/09 03:53:01;;;;;;;;;9.00;6.33;;;;;;;;5058542;28;45398;-71
2023/12/09 03:55:26;;;;;;;;;4.67;4.67;;;;;;;;5058228;28;45856;-71
2023/12/09 03:57:53;;;;;;;;;5.33;5.33;;;;;;;;5055920;28;47296;-72
2023/12/09 04:00:19;;;;;;;;;14.33;7.33;;;;;;;;5058286;28;45419;-71
2023/12/09 04:02:44;;;;;;;;;7.67;3.67;;;;;;;;5056707;28;45748;-70
2023/12/09 04:05:09;;;;;;;;;9.33;6.67;;;;;;;;5058100;28;45586;-71
2023/12/09 04:07:35;;;;;;;;;8.00;7.00;;;;;;;;5058631;28;45404;-71
2023/12/09 04:10:00;;;;;;;;;13.67;8.00;;;;;;;;5058302;28;45469;-71
2023/12/09 04:12:25;;;;;;;;;7.67;7.67;;;;;;;;5058168;28;45430;-71
2023/12/09 04:14:51;;;;;;;;;13.67;8.67;;;;;;;;5050577;28;46538;-71
2023/12/09 04:17:16;;;;;;;;;12.00;9.00;;;;;;;;5057585;28;45611;-71
2023/12/09 04:19:41;;;;;;;;;10.00;5.33;;;;;;;;5058596;28;45307;-71
2023/12/09 04:22:07;;;;;;;;;14.00;7.00;;;;;;;;5058026;28;45521;-70
2023/12/09 04:24:32;;;;;;;;;11.67;5.00;;;;;;;;5058049;28;45676;-70
2023/12/09 04:26:57;;;;;;;;;7.67;5.67;;;;;;;;5057592;28;45139;-71
2023/12/09 04:29:22;;;;;;;;;5.33;5.33;;;;;;;;5058624;28;45335;-71
2023/12/09 04:31:48;;;;;;;;;8.33;7.00;;;;;;;;5057889;28;45513;-70
2023/12/09 04:34:13;;;;;;;;;8.33;5.33;;;;;;;;5057932;28;46631;-70
2023/12/09 04:36:38;;;;;;;;;7.33;6.00;;;;;;;;5058170;28;45629;-71
2023/12/09 04:39:04;;;;;;;;;12.33;8.67;;;;;;;;5057301;28;45199;-71
2023/12/09 04:41:29;;;;;;;;;12.33;9.00;;;;;;;;5040303;28;45593;-70
2023/12/09 04:43:54;;;;;;;;;7.67;4.67;;;;;;;;5058153;28;45982;-71
2023/12/09 04:46:19;;;;;;;;;10.67;5.33;;;;;;;;5057474;28;45459;-70
2023/12/09 04:48:44;;;;;;;;;10.67;7.00;;;;;;;;5057895;28;45345;-70
2023/12/09 04:51:10;;;;;;;;;8.33;4.67;;;;;;;;5057953;28;45426;-71
2023/12/09 04:53:35;;;;;;;;;8.33;7.00;;;;;;;;5057702;28;45284;-71
2023/12/09 04:56:00;;;;;;;;;7.00;4.67;;;;;;;;5040087;28;45404;-71
2023/12/09 04:58:25;;;;;;;;;10.33;4.00;;;;;;;;5039930;28;45189;-70
2023/12/09 05:00:51;;;;;;;;;4.00;4.00;;;;;;;;5057367;28;45505;-70
2023/12/09 05:03:16;;;;;;;;;4.00;3.00;;;;;;;;5057525;28;45754;-71
2023/12/09 05:05:41;;;;;;;;;10.00;3.00;;;;;;;;5057108;28;45193;-70
2023/12/09 05:08:06;;;;;;;;;3.00;2.00;;;;;;;;5057046;28;45363;-71
2023/12/09 05:10:31;;;;;;;;;4.00;2.67;;;;;;;;5057466;28;45463;-71
2023/12/09 05:12:57;;;;;;;;;4.33;3.33;;;;;;;;5057222;28;45626;-71
2023/12/09 05:15:22;;;;;;;;;9.67;4.00;;;;;;;;5057667;28;45486;-70
2023/12/09 05:17:47;;;;;;;;;3.00;2.00;;;;;;;;5056545;28;45507;-69
2023/12/09 05:20:12;;;;;;;;;2.00;2.00;;;;;;;;5057346;28;45479;-70
2023/12/09 05:22:38;;;;;;;;;2.67;2.00;;;;;;;;5057086;28;45945;-69
2023/12/09 05:25:03;;;;;;;;;3.00;3.00;;;;;;;;5057409;28;45436;-70
2023/12/09 05:27:28;;;;;;;;;2.67;2.00;;;;;;;;5057621;28;45446;-69
2023/12/09 05:29:54;;;;;;;;;8.67;2.00;;;;;;;;5056923;28;45609;-70
2023/12/09 05:32:19;;;;;;;;;3.00;3.00;;;;;;;;5056815;28;46628;-70
2023/12/09 05:34:44;;;;;;;;;2.67;2.00;;;;;;;;5057449;28;45436;-69
2023/12/09 05:37:09;;;;;;;;;2.67;2.00;;;;;;;;5038640;28;45364;-69
2023/12/09 05:39:35;;;;;;;;;4.67;2.00;;;;;;;;5055119;28;45565;-70
2023/12/09 05:42:00;;;;;;;;;4.00;2.00;;;;;;;;5056956;28;46110;-69
2023/12/09 05:44:25;;;;;;;;;4.00;2.33;;;;;;;;5038914;28;46104;-68
2023/12/09 05:46:51;;;;;;;;;6.67;2.00;;;;;;;;5056842;28;45498;-70
2023/12/09 05:49:16;;;;;;;;;7.00;3.00;;;;;;;;5057211;28;45296;-69
2023/12/09 05:51:42;;;;;;;;;3.67;2.67;;;;;;;;5057203;28;46223;-69
2023/12/09 05:54:07;;;;;;;;;1.33;1.33;;;;;;;;5056919;28;45166;-69
2023/12/09 05:56:32;;;;;;;;;2.67;2.67;;;;;;;;5057745;28;45349;-70
2023/12/09 05:58:58;;;;;;;;;1.33;1.00;;;;;;;;5056852;28;45343;-70
2023/12/09 06:01:23;;;;;;;;;9.67;4.00;;;;;;;;5182369;22;46752;-69
2023/12/09 06:03:48;;;;;;;;;11.33;3.00;;;;;;;;5055760;28;45431;-70
2023/12/09 06:06:13;;;;;;;;;10.00;4.00;;;;;;;;5056504;28;45399;-69
2023/12/09 06:08:39;;;;;;;;;3.00;3.00;;;;;;;;5056609;28;45391;-68
2023/12/09 06:11:04;;;;;;;;;3.00;2.00;;;;;;;;5056263;28;46554;-70
2023/12/09 06:13:30;;;;;;;;;4.00;3.00;;;;;;;;5054950;28;45381;-70
2023/12/09 06:15:55;;;;;;;;;3.00;3.00;;;;;;;;5056693;28;45432;-70
2023/12/09 06:18:20;;;;;;;;;5.67;3.00;;;;;;;;5056091;28;45447;-69
2023/12/09 06:20:46;;;;;;;;;8.00;3.33;;;;;;;;5056737;28;46851;-69
2023/12/09 06:23:11;;;;;;;;;7.33;4.00;;;;;;;;5055959;28;45201;-70
2023/12/09 06:25:36;;;;;;;;;3.00;3.00;;;;;;;;5056596;28;46149;-69
2023/12/09 06:28:01;;;;;;;;;4.33;3.33;;;;;;;;5056380;28;45410;-70
2023/12/09 06:30:27;;;;;;;;;4.33;2.33;;;;;;;;5056773;28;45468;-69
2023/12/09 06:32:52;;;;;;;;;9.67;2.33;;;;;;;;5056417;28;45250;-69
2023/12/09 06:35:17;;;;;;;;;4.33;3.00;;;;;;;;5056388;28;45437;-68
2023/12/09 06:37:42;;;;;;;;;5.00;3.00;;;;;;;;5056153;28;45506;-69
2023/12/09 06:40:08;;;;;;;;;4.67;2.00;;;;;;;;5056012;28;45354;-69
2023/12/09 06:42:33;;;;;;;;;1.33;1.33;;;;;;;;5054901;28;45244;-70
2023/12/09 06:44:58;;;;;;;;;3.67;2.00;;;;;;;;5056154;28;45205;-70
2023/12/09 06:47:24;;;;;;;;;6.00;1.00;;;;;;;;5056544;28;45528;-69
2023/12/09 06:49:49;;;;;;;;;2.67;2.67;;;;;;;;5056551;28;45592;-69
2023/12/09 06:52:14;;;;;;;;;5.00;2.00;;;;;;;;5056146;28;45398;-68
2023/12/09 06:54:39;;;;;;;;;5.33;2.00;;;;;;;;5055788;28;45508;-69
2023/12/09 06:57:04;;;;;;;;;4.00;2.00;;;;;;;;5056189;28;45450;-69
2023/12/09 06:59:30;;;;;;;;;3.00;2.00;;;;;;;;5055976;28;45620;-71
2023/12/09 07:01:55;;;;;;;;;2.00;2.00;;;;;;;;5046934;28;45347;-71
2023/12/09 07:04:21;;;;;;;;;3.33;2.00;;;;;;;;5055072;28;45496;-69
2023/12/09 07:06:46;;;;;;;;;3.00;1.00;;;;;;;;5051007;28;45461;-70
2023/12/09 07:09:11;;;;;;;;;3.00;1.00;;;;;;;;5052592;28;46088;-70
2023/12/09 07:11:36;;;;;;;;;1.00;1.00;;;;;;;;5054681;28;45461;-69
2023/12/09 07:14:01;;;;;;;;;1.00;1.00;;;;;;;;5055370;28;45483;-70
2023/12/09 07:16:26;;;;;;;;;1.00;1.00;;;;;;;;5055687;28;45438;-72
2023/12/09 07:18:58;;;;;;;;;3.00;2.00;;;;;;;;5054864;28;45699;-69
2023/12/09 07:21:23;;;;;;;;;5.00;2.00;;;;;;;;5055644;28;45533;-70
2023/12/09 07:23:49;;;;;;;;;2.00;2.00;;;;;;;;5055028;28;45592;-71
2023/12/09 07:26:14;;;;;;;;;3.33;1.00;;;;;;;;5057830;28;45331;-70
2023/12/09 07:28:39;;;;;;;;;6.00;1.00;;;;;;;;5057411;28;45707;-69
2023/12/09 07:31:04;;;;;;;;;0.67;0.00;;;;;;;;5054542;28;45470;-69
2023/12/09 07:33:29;;;;;;;;;4.00;1.00;;;;;;;;5050801;28;45761;-70
2023/12/09 07:35:54;;;;;;;;;1.67;1.00;;;;;;;;5053926;28;45289;-69
2023/12/09 07:38:20;;;;;;;;;7.67;1.33;;;;;;;;5058279;28;46628;-69
2023/12/09 07:40:45;;;;;;;;;0.67;0.67;;;;;;;;5058091;28;45412;-70
2023/12/09 07:43:10;;;;;;;;;1.33;1.00;;;;;;;;5057733;28;45411;-70
2023/12/09 07:45:35;;;;;;;;;2.33;1.00;;;;;;;;5054856;28;45619;-72
2023/12/09 07:48:01;;;;;;;;;1.00;1.00;;;;;;;;5039584;28;48639;-71
2023/12/09 07:50:26;;;;;;;;;1.33;1.00;;;;;;;;5057964;28;45514;-70
2023/12/09 07:52:51;;;;;;;;;2.00;1.33;;;;;;;;5058823;28;45311;-69
2023/12/09 07:55:17;;;;;;;;;2.67;1.67;;;;;;;;5058276;28;45447;-70
2023/12/09 07:57:42;;;;;;;;;2.00;2.00;;;;;;;;5046332;28;46349;-70
2023/12/09 08:00:07;;;;;;;;;2.00;2.00;;;;;;;;5053657;28;45434;-69
2023/12/09 08:02:32;;;;;;;;;4.00;1.00;;;;;;;;5054141;28;45445;-70
2023/12/09 08:04:58;;;;;;;;;1.33;1.33;;;;;;;;5057463;28;45665;-71
2023/12/09 08:07:23;;;;;;;;;3.67;1.00;;;;;;;;5056854;28;46471;-69
2023/12/09 08:09:48;;;;;;;;;2.33;1.00;;;;;;;;5057154;28;45460;-69
2023/12/09 08:12:13;;;;;;;;;0.00;0.00;;;;;;;;5056581;28;45396;-69
2023/12/09 08:14:38;;;;;;;;;2.00;1.00;;;;;;;;5056884;28;45470;-70
2023/12/09 08:17:04;;;;;;;;;0.00;0.00;;;;;;;;5057594;28;46601;-71
2023/12/09 08:19:29;;;;;;;;;3.00;1.00;;;;;;;;5057626;28;45441;-70
2023/12/09 08:21:54;;;;;;;;;4.00;1.00;;;;;;;;5057996;28;45355;-70
2023/12/09 08:24:19;;;;;;;;;2.00;0.67;;;;;;;;5058014;28;45424;-69
2023/12/09 08:26:45;;;;;;;;;0.00;0.00;;;;;;;;5055250;28;45751;-69
2023/12/09 08:29:14;;;;;;;;;1.00;1.00;;;;;;;;5056747;28;45415;-69
2023/12/09 08:31:39;;;;;;;;;5.67;1.00;;;;;;;;5054145;28;45403;-68
2023/12/09 08:34:04;;;;;;;;;4.00;4.00;;;;;;;;5054845;28;45441;-70
2023/12/09 08:36:29;;;;;;;;;4.00;4.00;;;;;;;;5054769;28;46696;-71
2023/12/09 08:38:54;;;;;;;;;1.67;1.00;;;;;;;;5056470;28;45790;-72
2023/12/09 08:41:20;;;;;;;;;0.00;0.00;;;;;;;;5058193;28;45326;-69
2023/12/09 08:43:45;;;;;;;;;2.33;1.00;;;;;;;;5054797;28;45541;-71
2023/12/09 08:46:10;;;;;;;;;2.00;1.00;;;;;;;;5056754;28;45952;-69
2023/12/09 08:48:35;;;;;;;;;1.67;1.00;;;;;;;;5056253;28;45779;-69
2023/12/09 08:51:00;;;;;;;;;2.00;1.00;;;;;;;;5057419;28;45372;-69
2023/12/09 08:53:26;;;;;;;;;1.00;1.00;;;;;;;;5058135;28;45430;-69
2023/12/09 08:55:51;;;;;;;;;1.00;1.00;;;;;;;;5056584;28;46142;-72
2023/12/09 08:58:16;;;;;;;;;1.00;0.00;;;;;;;;5057429;28;45449;-70
2023/12/09 09:00:41;;;;;;;;;1.00;1.00;;;;;;;;5054436;28;45435;-69
2023/12/09 09:03:07;;;;;;;;;2.00;1.00;;;;;;;;5056722;28;45511;-70
2023/12/09 09:05:32;;;;;;;;;0.00;0.00;;;;;;;;5057204;28;46670;-71
2023/12/09 09:07:57;;;;;;;;;2.00;0.00;;;;;;;;5056219;28;45619;-72
2023/12/09 09:10:22;;;;;;;;;1.67;0.00;;;;;;;;5056818;28;45541;-72
2023/12/09 09:12:48;;;;;;;;;3.00;0.00;;;;;;;;5056907;28;45462;-73
2023/12/09 09:15:13;;;;;;;;;0.33;0.33;;;;;;;;5057328;28;45645;-73
2023/12/09 09:17:39;;;;;;;;;0.33;0.00;;;;;;;;5050425;28;45697;-73
2023/12/09 09:20:05;;;;;;;;;3.00;0.67;;;;;;;;5056318;28;45289;-72
2023/12/09 09:22:30;;;;;;;;;0.67;0.00;;;;;;;;5053910;28;45455;-73
2023/12/09 09:24:55;;;;;;;;;2.00;0.00;;;;;;;;5043739;28;47186;-73
2023/12/09 09:27:20;;;;;;;;;0.00;0.00;;;;;;;;5045100;28;45731;-71
2023/12/09 09:29:45;;;;;;;;;0.67;0.67;;;;;;;;5042338;28;45357;-74
2023/12/09 09:32:11;;;;;;;;;0.00;0.00;;;;;;;;5049022;28;45427;-72
2023/12/09 09:34:36;;;;;;;;;0.00;0.00;;;;;;;;5060363;28;45810;-71
2023/12/09 09:37:01;;;;;;;;;0.00;0.00;;;;;;;;5056482;28;45416;-70
2023/12/09 09:39:26;;;;;;;;;0.00;0.00;;;;;;;;5057000;28;45357;-71
2023/12/09 09:41:57;;;;;;;;;1.00;0.00;;;;;;;;5054352;28;45637;-70
2023/12/09 09:44:26;;;;;;;;;1.00;0.00;;;;;;;;5056376;28;45519;-71
2023/12/09 09:46:55;;;;;;;;;0.00;0.00;;;;;;;;5057219;28;45363;-72
2023/12/09 09:49:21;;;;;;;;;0.00;0.00;;;;;;;;5057018;28;45457;-71
2023/12/09 09:51:48;;;;;;;;;0.00;0.00;;;;;;;;5054526;28;45320;-71
2023/12/09 09:54:18;;;;;;;;;0.00;0.00;;;;;;;;5052345;28;45977;-71
2023/12/09 09:56:44;;;;;;;;;0.00;0.00;;;;;;;;5050229;28;45526;-71
2023/12/09 09:59:10;;;;;;;;;0.00;0.00;;;;;;;;5054781;28;45328;-72
2023/12/09 10:01:37;;;;;;;;;1.00;0.00;;;;;;;;5037878;28;45624;-71
2023/12/09 10:04:03;;;;;;;;;0.00;0.00;;;;;;;;5055674;28;45807;-71
2023/12/09 10:06:29;;;;;;;;;0.00;0.00;;;;;;;;5054370;28;45380;-71
2023/12/09 10:08:55;;;;;;;;;0.00;0.00;;;;;;;;5054033;28;45749;-73
2023/12/09 10:11:20;;;;;;;;;0.00;0.00;;;;;;;;5056131;28;45466;-73
2023/12/09 10:13:46;;;;;;;;;0.00;0.00;;;;;;;;5055921;28;46426;-74
2023/12/09 10:16:11;;;;;;;;;0.00;0.00;;;;;;;;5055537;28;45352;-73
2023/12/09 10:18:36;;;;;;;;;1.00;0.00;;;;;;;;5055020;28;45537;-72
2023/12/09 10:21:02;;;;;;;;;0.00;0.00;;;;;;;;5050800;28;45485;-72
2023/12/09 10:23:27;;;;;;;;;0.00;0.00;;;;;;;;5055668;28;46454;-72
2023/12/09 10:25:52;;;;;;;;;0.00;0.00;;;;;;;;5053192;28;45384;-73
2023/12/09 10:28:18;;;;;;;;;0.00;0.00;;;;;;;;5052787;28;45646;-73
2023/12/09 10:30:43;;;;;;;;;0.00;0.00;;;;;;;;5054262;28;45628;-72
2023/12/09 10:33:09;;;;;;;;;2.67;2.67;;;;;;;;5056326;28;45916;-74
2023/12/09 10:35:35;;;;;;;;;1.00;1.00;;;;;;;;5055679;28;45485;-72
2023/12/09 10:38:01;;;;;;;;;0.00;0.00;;;;;;;;5052766;28;45357;-72
2023/12/09 10:40:26;;;;;;;;;0.00;0.00;;;;;;;;5055406;28;47528;-72
2023/12/09 10:42:51;;;;;;;;;0.00;0.00;;;;;;;;5055806;28;45413;-72
2023/12/09 10:45:16;;;;;;;;;0.00;0.00;;;;;;;;5055252;28;45355;-73
2023/12/09 10:47:41;;;;;;;;;2.00;0.00;;;;;;;;5035554;28;46516;-73
2023/12/09 10:50:07;;;;;;;;;1.00;0.33;;;;;;;;5044196;28;45403;-72
2023/12/09 10:52:32;;;;;;;;;0.00;0.00;;;;;;;;5048690;28;46765;-72
2023/12/09 10:54:58;;;;;;;;;0.00;0.00;;;;;;;;5048491;28;45402;-72
2023/12/09 10:57:23;;;;;;;;;1.00;1.00;;;;;;;;5050754;28;45375;-73
2023/12/09 10:59:49;;;;;;;;;0.00;0.00;;;;;;;;5056643;28;45485;-71
2023/12/09 11:02:14;;;;;;;;;1.00;0.00;;;;;;;;5054933;28;46594;-72
2023/12/09 11:04:40;;;;;;;;;0.00;0.00;;;;;;;;5056688;28;45372;-72
2023/12/09 11:07:06;;;;;;;;;0.00;0.00;;;;;;;;5059594;28;45527;-72
2023/12/09 11:09:32;;;;;;;;;0.00;0.00;;;;;;;;5054963;28;45388;-73
2023/12/09 11:11:58;;;;;;;;;0.00;0.00;;;;;;;;5056456;28;46056;-73
2023/12/09 11:14:26;;;;;;;;;0.00;0.00;;;;;;;;5053075;28;45333;-72
2023/12/09 11:16:52;;;;;;;;;0.00;0.00;;;;;;;;5060540;28;45350;-72
2023/12/09 11:19:17;;;;;;;;;0.00;0.00;;;;;;;;5057389;28;45554;-72
2023/12/09 11:21:45;;;;;;;;;1.00;0.00;;;;;;;;5053515;28;45997;-72
2023/12/09 11:24:10;;;;;;;;;0.00;0.00;;;;;;;;5060638;28;45529;-71
2023/12/09 11:26:36;;;;;;;;;0.00;0.00;;;;;;;;5053213;28;45424;-71
2023/12/09 11:29:05;;;;;;;;;0.00;0.00;;;;;;;;5058521;28;45944;-71
2023/12/09 11:31:41;;;;;;;;;0.00;0.00;;;;;;;;5054372;28;46834;-70
2023/12/09 11:34:07;;;;;;;;;1.33;0.00;;;;;;;;5040017;28;46362;-69
2023/12/09 11:36:35;;;;;;;;;2.00;0.00;;;;;;;;5056517;28;45458;-70
2023/12/09 11:39:01;;;;;;;;;0.00;0.00;;;;;;;;5055208;28;45411;-69
2023/12/09 11:41:27;;;;;;;;;0.00;0.00;;;;;;;;5055137;28;45755;-69
2023/12/09 11:43:53;;;;;;;;;0.00;0.00;;;;;;;;5055716;28;45558;-69
2023/12/09 11:46:19;;;;;;;;;0.00;0.00;;;;;;;;5055747;28;45423;-70
2023/12/09 11:48:44;;;;;;;;;0.00;0.00;;;;;;;;5059505;28;45427;-69
2023/12/09 11:51:09;;;;;;;;;0.33;0.33;;;;;;;;5054520;28;46931;-69
2023/12/09 11:53:34;;;;;;;;;0.00;0.00;;;;;;;;5060521;28;45310;-70
2023/12/09 11:56:00;;;;;;;;;0.00;0.00;;;;;;;;5056582;28;45663;-69
2023/12/09 11:58:25;;;;;;;;;1.00;0.00;;;;;;;;5056059;28;45711;-70
2023/12/09 12:00:50;;;;;;;;;0.00;0.00;;;;;;;;5057235;28;46948;-70
2023/12/09 12:03:15;;;;;;;;;0.00;0.00;;;;;;;;5060482;28;45521;-70
2023/12/09 12:05:40;;;;;;;;;0.00;0.00;;;;;;;;5053762;28;45585;-70
2023/12/09 12:08:06;;;;;;;;;0.00;0.00;;;;;;;;5054334;28;45602;-70
2023/12/09 12:10:32;;;;;;;;;0.00;0.00;;;;;;;;5029645;28;48569;-70
2023/12/09 12:12:57;;;;;;;;;0.00;0.00;;;;;;;;5051004;28;45279;-70
2023/12/09 12:15:22;;;;;;;;;2.00;0.00;;;;;;;;5053494;28;45662;-70
2023/12/09 12:17:48;;;;;;;;;0.00;0.00;;;;;;;;5049154;28;46208;-69
2023/12/09 12:20:13;;;;;;;;;0.00;0.00;;;;;;;;5053613;28;46513;-70
2023/12/09 12:22:40;;;;;;;;;0.00;0.00;;;;;;;;5054489;28;45340;-69
2023/12/09 12:25:06;;;;;;;;;0.00;0.00;;;;;;;;5055854;28;45491;-67
2023/12/09 12:27:35;;;;;;;;;0.00;0.00;;;;;;;;5054676;28;45454;-70
2023/12/09 12:30:01;;;;;;;;;0.00;0.00;;;;;;;;5056707;28;45858;-68
2023/12/09 12:32:27;;;;;;;;;0.00;0.00;;;;;;;;5051657;28;45585;-68
2023/12/09 12:34:52;;;;;;;;;0.00;0.00;;;;;;;;5055439;28;46419;-69
2023/12/09 12:37:17;;;;;;;;;0.00;0.00;;;;;;;;5056824;28;45487;-68
2023/12/09 12:39:43;;;;;;;;;0.00;0.00;;;;;;;;5055330;28;46836;-68
2023/12/09 12:42:08;;;;;;;;;0.00;0.00;;;;;;;;5053679;28;45392;-69
2023/12/09 12:44:33;;;;;;;;;0.00;0.00;;;;;;;;5056692;28;46477;-68
2023/12/09 12:46:59;;;;;;;;;0.00;0.00;;;;;;;;5055833;28;45507;-68
2023/12/09 12:49:25;;;;;;;;;0.00;0.00;;;;;;;;5054555;28;45736;-68
2023/12/09 12:51:50;;;;;;;;;0.00;0.00;;;;;;;;5055755;28;45232;-70
2023/12/09 12:54:16;;;;;;;;;0.33;0.33;;;;;;;;5055996;28;45427;-68
2023/12/09 12:56:41;;;;;;;;;0.00;0.00;;;;;;;;5038091;28;45490;-67
2023/12/09 12:59:06;;;;;;;;;0.00;0.00;;;;;;;;5054366;28;45602;-70
2023/12/09 13:01:32;;;;;;;;;0.00;0.00;;;;;;;;5053765;28;45519;-67
2023/12/09 13:03:57;;;;;;;;;1.00;0.00;;;;;;;;5055277;28;45978;-68
2023/12/09 13:06:22;;;;;;;;;1.00;1.00;;;;;;;;5056297;28;45355;-70
2023/12/09 13:08:47;;;;;;;;;0.00;0.00;;;;;;;;5054794;28;46849;-68
2023/12/09 13:11:13;;;;;;;;;0.00;0.00;;;;;;;;5050907;28;45591;-69
2023/12/09 13:13:38;;;;;;;;;0.00;0.00;;;;;;;;5055102;28;45185;-67
2023/12/09 13:16:03;;;;;;;;;0.00;0.00;;;;;;;;5051068;28;45531;-68
2023/12/09 13:18:28;;;;;;;;;0.00;0.00;;;;;;;;5052253;28;46065;-67
2023/12/09 13:20:53;;;;;;;;;0.00;0.00;;;;;;;;5052247;28;46892;-67
2023/12/09 13:23:19;;;;;;;;;1.33;0.00;;;;;;;;5053100;28;45624;-68
2023/12/09 13:25:44;;;;;;;;;0.00;0.00;;;;;;;;5054852;28;45174;-70
2023/12/09 13:28:09;;;;;;;;;0.00;0.00;;;;;;;;5055160;28;46743;-69
2023/12/09 13:30:36;;;;;;;;;0.00;0.00;;;;;;;;5054324;28;45395;-71
2023/12/09 13:33:02;;;;;;;;;0.00;0.00;;;;;;;;5055098;28;45292;-68
2023/12/09 13:35:28;;;;;;;;;0.67;0.00;;;;;;;;5054486;28;45397;-70
2023/12/09 13:37:54;;;;;;;;;0.67;0.00;;;;;;;;5052361;28;45703;-69
2023/12/09 13:40:19;;;;;;;;;0.00;0.00;;;;;;;;5051350;28;45595;-70
2023/12/09 13:42:45;;;;;;;;;0.00;0.00;;;;;;;;5053776;28;45427;-67
2023/12/09 13:45:13;;;;;;;;;0.00;0.00;;;;;;;;5049203;28;45629;-68
2023/12/09 13:47:38;;;;;;;;;0.00;0.00;;;;;;;;5053946;28;46094;-69
2023/12/09 13:50:05;;;;;;;;;0.00;0.00;;;;;;;;5052318;28;45546;-71
2023/12/09 13:52:33;;;;;;;;;0.00;0.00;;;;;;;;5057220;28;45411;-68
2023/12/09 13:54:59;;;;;;;;;0.67;0.00;;;;;;;;5051394;28;46683;-68
2023/12/09 13:57:24;;;;;;;;;0.00;0.00;;;;;;;;5056399;28;45715;-68
2023/12/09 13:59:50;;;;;;;;;0.00;0.00;;;;;;;;5056801;28;45407;-68
2023/12/09 14:02:15;;;;;;;;;0.00;0.00;;;;;;;;5038119;28;45463;-68
2023/12/09 14:04:40;;;;;;;;;0.00;0.00;;;;;;;;5056712;28;45410;-71
2023/12/09 14:07:05;;;;;;;;;1.00;0.00;;;;;;;;5055912;28;45420;-68
2023/12/09 14:09:30;;;;;;;;;0.00;0.00;;;;;;;;5055948;28;45862;-68
2023/12/09 14:11:55;;;;;;;;;1.00;0.00;;;;;;;;5055571;28;45542;-69
2023/12/09 14:14:21;;;;;;;;;0.00;0.00;;;;;;;;5053348;28;45469;-68
2023/12/09 14:16:46;;;;;;;;;0.67;0.00;;;;;;;;5056341;28;46126;-68
2023/12/09 14:19:12;;;;;;;;;0.00;0.00;;;;;;;;5055641;28;45403;-70
2023/12/09 14:21:38;;;;;;;;;1.33;0.00;;;;;;;;5056542;28;45414;-67
2023/12/09 14:24:03;;;;;;;;;1.00;0.00;;;;;;;;5056432;28;45189;-67
2023/12/09 14:26:28;;;;;;;;;0.00;0.00;;;;;;;;5055930;28;46138;-68
2023/12/09 14:28:54;;;;;;;;;1.00;1.00;;;;;;;;5056598;28;45431;-68
2023/12/09 14:31:19;;;;;;;;;0.00;0.00;;;;;;;;5055602;28;45539;-70